LEABLFKJ

Guest
Details From LEAB - Albacete
To LFKJ - Campo Dell Oro
Flight Number -
Tags Generated
Created
Modified
Stats Distance 519 nm / 961 km
Max Altitude 0 ft / 0 m
Waypoints 4
Social Downloads 1
Likes 0
Share VATSIM

Download

Looking for another format? Having issues loading an existing format? Contact us
Advertisement - Login to hide

Notes

Generated

Route

LEAB BLASO OBOBO LFKJ

ID Type Via Altitude Latitude Longitude Leg Dist Tot Dist Heading (true) Name
O LEAB APT - 0 ft / 0 m 38.94797˚ -1.87906˚ - 0 nm - -
BLASO FIX - 0 ft / 0 m 40.65280˚ 3.64446˚ 274 nm 274 nm 66° / 70° -
OBOBO FIX - 0 ft / 0 m 41.86472˚ 8.44500˚ 228 nm 503 nm 70° / 73° -
O LFKJ APT - 0 ft / 0 m 41.92445˚ 8.79174˚ 15 nm 519 nm 77° / 77° -

Altitude Profile

Advertisement - Login to hide

Weather


0- 5 10 15 20 25 30 35+ Temperature / ° C

Clouds and Precipitation
Forecast for 2017-12-14 06:00 UTC. Updated an hour ago

Ground ~20,000 ft ~40,000 ft Winds

LEAB

Details ICAO LEAB
Name Albacete
Region Spain
Timezone Europe/Madrid (UTC+1.0)
Stats Elevation 2,301 ft / 701 m (AMSL)
Location 38.948527° -1.863500°
Runways 1
Magnetic Variation 0.168° W

METAR

LEAB 140600Z VRB02KT CAVOK 02/01 Q1023 NOSIG

Decode

TAF

Not found

Departure Runways

ID Width Length Bearing (true) Bearing (mag) Surface Threshold Offset Overrun Length
09 197 ft / 60 m 8,839 ft / 2,694 m 87.36° 87.53° Asphalt 0 ft / 0 m 1,247 ft / 380 m
27 197 ft / 60 m 8,839 ft / 2,694 m 267.38° 267.55° Asphalt 0 ft / 0 m 1,247 ft / 380 m

LFKJ

Details ICAO LFKJ (AJA)
Name Napoleon Bonaparte
Region France
Timezone Europe/Paris (UTC+1.0)
Stats Elevation 18 ft / 5 m (AMSL)
Location 41.922886° 8.799587°
Runways 2
Magnetic Variation 2.329° E

METAR

LFKJ 140630Z AUTO 23015KT 9999 -RA BKN027 OVC032 14/10 Q1015 TEMPO 25015G25KT 4000 RA BKN014 OVC050

Decode

TAF

TAF TAF LFKJ 140200Z 1403/1503 25012KT 9999 SCT030 BKN060 TEMPO 1403/1409 25015G25KT 4000 RA BKN014 OVC050 BECMG 1416/1419 VRB05KT TEMPO 1500/1503 4000 RA BKN014 OVC050

Decode

Destination Runways

ID Width Length Bearing (true) Bearing (mag) Surface Threshold Offset Overrun Length
02 180 ft / 55 m 7,899 ft / 2,408 m 24.94° 22.61° Asphalt 0 ft / 0 m 164 ft / 50 m
10 98 ft / 30 m 3,447 ft / 1,051 m 94.35° 92.02° Concrete 0 ft / 0 m 164 ft / 50 m
20 180 ft / 55 m 7,899 ft / 2,408 m 204.95° 202.62° Asphalt 745 ft / 227 m 230 ft / 70 m
28 98 ft / 30 m 3,447 ft / 1,051 m 274.36° 272.03° Concrete 213 ft / 65 m 0 ft / 0 m

Approach Navaids

Runway Type Ident Frequency Range Bearing (true) Bearing (mag) Slope Elevation
02 Localiser AC 110.30 MHz 27 nm / 50 km 24.92° 22.59° - 18 ft / 5 m (AMSL)
02 Glidescope AC 110.30 MHz 27 nm / 50 km 24.92° 22.59° 3.00° 18 ft / 5 m (AMSL)
02 DME AC 110.30 MHz 27 nm / 50 km - - - 18 ft / 5 m (AMSL)